x

New York Harbor Entrance - 15 Nm Se Of Breezy Point , Ny (44065) Wave Buoy

5:50am - Wed 1st Apr 2015 All times are EDT. -4 hours from GMT.

  • Sig Wave height 3.3ft
  • Swell Direction
  • Peak Period 8s
  • Average Period 4s
  • Wind
    20mph, 25mph gusts
  • Sea Temp 39°f
  • Air Temp 37°f
  • Sea Pressure 1012.7mb
  • New York Harbor Entrance - 15 Nm Se Of Breezy Point , Ny
  • New York Harbor Entrance - 15 Nm Se Of Breezy Point , Ny

More Historic Weather Station data

Upgrade to MSW Pro to gain access to the past 30 days of data for over 8000 Wavebouys and Weather Stations around the globe.

Join Pro

Comparision Forecast

View Surf forecast
   
Wed 04/01 5:50am 3.5ft 8s 4s 20 25 mph 1012.7mb 39f 37f
4:50am 3.5ft 8s 4s 20 25 mph 1011.5mb 39f 38f
3:50am 3.5ft 8s 4s 18 22 mph 1010.7mb 39f 38f
2:50am 2.5ft 8s 4s 18 22 mph 1009.9mb 39f 38f
1:50am 2ft 8s 4s 13 16 mph 1009.6mb 39f 39f
12:50am 2ft 8s 4s 13 16 mph 1009.4mb 39f 38f
Tue 03/31 11:50pm 1.6ft 9s 4s 16 18 mph 1009mb 39f 38f
10:50pm 2ft 8s 4s 13
mph
1008.6mb 39f 37f
9:50pm 2ft 7s 4s 13 16 mph 1008.4mb 39f 38f
8:50pm 2.5ft 7s 4s 13 16 mph 1007.9mb 39f 38f
7:50pm 2.5ft 7s 4s 13 16 mph 1007.2mb 39f 39f
6:50pm 2.5ft 7s 5s 11 13 mph 1007.8mb 39f 39f
5:50pm 2.5ft 7s 5s 16 18 mph 1006.8mb 39f 38f
4:50pm 2.5ft 7s 6s 9 13 mph 1006.8mb 40f 40f
3:50pm 2.5ft 7s 6s 7
mph
1007.5mb 40f 40f
2:50pm 2.5ft 7s 6s 9
mph
1007.6mb 40f 40f
1:50pm 2.5ft 8s 6s 7 9 mph 1008.8mb 40f 40f
12:50pm 2.5ft 8s 6s 4 7 mph 1010mb 40f 41f
11:50am 3ft 8s 6s 2 4 mph 1010.9mb 40f 41f
10:50am 3ft 8s 6s 7 9 mph 1011.7mb 39f 40f
9:50am 3.5ft 8s 6s 11
mph
1012.3mb 39f 40f
8:50am 3.5ft 8s 5s 16 20 mph 1012.3mb 39f 40f
7:50am 4ft 8s 6s 11
mph
1012.3mb 39f 41f
6:50am 3.5ft 8s 6s 9 11 mph 1011.7mb 39f 40f
5:50am 4ft 8s 6s 16 22 mph 1010.6mb 39f 42f
4:50am 3.5ft 8s 6s 13 16 mph 1010.3mb 39f 41f
3:50am 3.5ft 9s 6s 11
mph
1010.4mb 39f 41f
2:50am 3.5ft 8s 6s 9 11 mph 1010.8mb 39f 41f
1:50am 3.5ft 9s 6s 11 13 mph 1011.3mb 39f 42f
12:50am 3.5ft 7s 6s 7
mph
1011.4mb 39f 42f
Mon 03/30 11:50pm 3.5ft 7s 6s 7 9 mph 1011.2mb 39f 42f
10:50pm 3.5ft 7s 6s 13 16 mph 1011.2mb 39f 44f
9:50pm 4ft 7s 6s 9 11 mph 1010.5mb 39f 44f
8:50pm 4ft 7s 6s 9 11 mph 1009.8mb 39f 45f
7:50pm 4.5ft 8s 6s 13 16 mph 1009.2mb 39f 46f
6:50pm 4.5ft 7s 5s 16
mph
1008.9mb 39f 46f
5:50pm 4.5ft 7s 5s 9 11 mph 1008.6mb 39f 44f
4:50pm 4.5ft 7s 5s 13 18 mph 1008.2mb 39f 46f
3:50pm 4.5ft 7s 6s 9 13 mph 1008.1mb 39f 46f
2:50pm 4ft 5s 5s 11 13 mph 1008.5mb 39f 41f
1:50pm 4ft 6s 5s 11 13 mph 1009.4mb 39f 40f
12:50pm 3.5ft 6s 5s 13
mph
1010.1mb 39f 39f
11:50am 3.5ft 5s 5s 16 18 mph 1010.8mb 38f 39f
10:50am 3.5ft 10s 5s 18 20 mph 1011.8mb 38f 38f
9:50am 3.5ft 10s 5s 20 25 mph 1012.1mb 38f 39f
8:50am 3.5ft 10s 5s 20 22 mph 1012.7mb 38f 39f
7:50am 4.5ft 10s 5s 16 20 mph 1013.6mb 38f 38f
6:50am 4.5ft 5s 5s 16 18 mph 1013.9mb 38f 38f
5:50am 4ft 5s 4s 22 27 mph 1014.9mb 38f 39f
4:50am 3.5ft 11s 4s 22 25 mph 1015.6mb 38f 39f
3:50am 3.5ft 10s 5s 18 22 mph 1017.3mb 38f 38f
2:50am 3ft 10s 5s 16 18 mph 1018mb 38f 38f
1:50am 3.5ft 10s 5s 18 20 mph 1019.2mb 38f 38f
12:50am 3.5ft 11s 5s 18 22 mph 1019.9mb 38f 38f
Sun 03/29 11:50pm 3.5ft 4s 5s 16 18 mph 1020.1mb 38f 39f
10:50pm 3.5ft 4s 5s 18 20 mph 1020.9mb 38f 38f
9:50pm 3.5ft 11s 5s 18 22 mph 1021.1mb 38f 38f
8:50pm 3.5ft 9s 5s 20 22 mph 1021mb 39f 37f
7:50pm 3.5ft 11s 5s 20 22 mph 1021.7mb 39f 37f
6:50pm 2.5ft 10s 6s 18 20 mph 1021.8mb 39f 37f
5:50pm 3.5ft 10s 8s 13 16 mph 1022mb 39f 39f
4:50pm 3.5ft 11s 7s 7 9 mph 1022mb 39f 39f
3:50pm 3.5ft 10s 7s 9 11 mph 1022.8mb 39f 38f
2:50pm 3.5ft 10s 7s 9 11 mph 1023.4mb 39f 37f
1:50pm 3.5ft 9s 7s 11 13 mph 1024.3mb 39f 35f
12:50pm 3.5ft 10s 6s 9 11 mph 1024.9mb 38f 34f
11:50am 3.5ft 11s 5s 13 18 mph 1025.2mb 38f 32f
10:50am 3.5ft 10s 5s 13 18 mph 1025.4mb 38f 31f
9:50am 3.5ft 11s 5s 18 22 mph 1024.8mb 38f 30f
8:50am 3.5ft 11s 5s 18 22 mph 1024.2mb 38f 29f
7:50am 3.5ft 11s 5s 20 25 mph 1023.5mb 38f 29f
6:50am 3.5ft 4s 4s 20 25 mph 1022.3mb 38f 29f
5:50am 3.5ft 11s 4s 20 25 mph 1021.4mb 38f 29f
4:50am 3.5ft 11s 4s 20 25 mph 1020.4mb 38f 29f
3:50am 3.5ft 11s 5s 20 27 mph 1020mb 38f 29f
2:50am 3.5ft 11s 5s 20 29 mph 1019.8mb 38f 29f
1:50am 3.5ft 11s 4s 22 27 mph 1019.6mb 38f 29f
12:50am 3.5ft 11s 5s 20 27 mph 1019.3mb 38f 30f
Sat 03/28 11:50pm 3.5ft 10s 5s 22 27 mph 1018.7mb 38f 32f
10:50pm 4ft 10s 4s 20 25 mph 1018.1mb 38f 32f
9:50pm 4ft 10s 4s 22 27 mph 1017.1mb 38f 34f
8:50pm 3.5ft 11s 4s 22 27 mph 1015.9mb 38f 36f
7:50pm 3.5ft 11s 5s 18 22 mph 1014.6mb 38f 36f
6:50pm 3ft 11s 5s 18 22 mph 1013mb 38f 36f
5:50pm 3ft 11s 5s 16 18 mph 1011.6mb 38f 37f
4:50pm 3ft 11s 6s 16
mph
1010.7mb 38f 37f
3:50pm 3.5ft 11s 5s 16 20 mph 1010mb 38f 36f
2:50pm 3.5ft 11s 5s 22 25 mph 1009.5mb 38f 35f
1:50pm 3.5ft 11s 5s 22 25 mph 1009.5mb 38f 34f
12:50pm 4ft 11s 5s 22 27 mph 1009.4mb 38f 35f
11:50am 3.5ft 11s 5s 20 25 mph 1009.4mb 38f 35f